createdAt,value
2023-01-29T00:01:36.446Z,101280.00
2023-01-29T00:07:04.035Z,101286.34
2023-01-29T00:12:31.437Z,101291.16
2023-01-29T00:17:59.482Z,101274.41
2023-01-29T00:23:27.257Z,101278.00
2023-01-29T00:28:55.001Z,101268.34
2023-01-29T00:34:23.749Z,101259.56
2023-01-29T00:39:51.620Z,101259.69
2023-01-29T00:45:19.350Z,101244.19
2023-01-29T00:50:47.196Z,101249.13
2023-01-29T00:56:14.517Z,101229.16
2023-01-29T01:02:08.345Z,101225.13
2023-01-29T01:07:36.667Z,101210.50
2023-01-29T01:13:07.153Z,101219.59
2023-01-29T01:18:35.438Z,101208.34
2023-01-29T01:24:05.990Z,101193.28
2023-01-29T01:29:33.646Z,101206.09
2023-01-29T01:35:01.563Z,101198.47
2023-01-29T01:40:28.828Z,101209.38
2023-01-29T01:45:56.464Z,101207.13
2023-01-29T01:51:28.788Z,101208.50
2023-01-29T01:57:09.503Z,101191.38
2023-01-29T02:02:58.116Z,101177.84
2023-01-29T02:08:53.504Z,101182.06
2023-01-29T02:14:21.447Z,101191.53
2023-01-29T02:20:03.643Z,101196.66
2023-01-29T02:25:47.867Z,101202.69
2023-01-29T02:32:09.754Z,101189.22
2023-01-29T02:37:54.915Z,101197.16
2023-01-29T02:43:58.828Z,101195.25
2023-01-29T02:49:35.397Z,101202.25
2023-01-29T02:55:13.418Z,101192.50
2023-01-29T03:00:45.277Z,101189.81
2023-01-29T03:06:20.878Z,101197.75
2023-01-29T03:11:54.868Z,101200.34
2023-01-29T03:17:31.876Z,101195.91
2023-01-29T03:23:13.379Z,101186.09
2023-01-29T03:29:03.124Z,101172.81
2023-01-29T03:34:39.118Z,101190.50
2023-01-29T03:40:08.671Z,101187.88
2023-01-29T03:46:01.861Z,101189.72
2023-01-29T03:51:38.657Z,101179.09
2023-01-29T03:57:35.725Z,101165.81
2023-01-29T04:03:21.692Z,101169.34
2023-01-29T04:09:22.373Z,101150.78
2023-01-29T04:14:53.946Z,101160.53
2023-01-29T04:20:22.724Z,101164.88
2023-01-29T04:26:16.375Z,101153.44
2023-01-29T04:32:06.025Z,101150.88
2023-01-29T04:37:45.286Z,101127.06
2023-01-29T04:43:39.918Z,101122.63
2023-01-29T04:49:12.750Z,101113.84
2023-01-29T04:54:56.694Z,101102.44
2023-01-29T05:00:46.835Z,101104.28
2023-01-29T05:06:16.364Z,101107.00
2023-01-29T05:11:47.195Z,101106.91
2023-01-29T05:17:19.030Z,101104.28
2023-01-29T05:22:49.026Z,101095.44
2023-01-29T05:28:18.833Z,101083.91
2023-01-29T05:33:46.155Z,101086.50
2023-01-29T05:39:12.977Z,101087.44
2023-01-29T05:44:40.165Z,101091.00
2023-01-29T05:50:07.984Z,101097.22
2023-01-29T05:55:35.574Z,101083.03
2023-01-29T06:01:10.405Z,101081.34
2023-01-29T06:06:37.979Z,101082.31
2023-01-29T06:12:06.563Z,101085.13
2023-01-29T06:17:33.777Z,101089.69
2023-01-29T06:23:00.967Z,101093.28
2023-01-29T06:28:28.443Z,101095.06
2023-01-29T06:33:56.502Z,101104.72
2023-01-29T06:39:24.044Z,101110.09
2023-01-29T06:44:51.164Z,101103.03
2023-01-29T06:50:18.768Z,101112.75
2023-01-29T06:55:53.157Z,101123.28
2023-01-29T07:01:34.746Z,101138.19
2023-01-29T07:07:03.862Z,101148.72
2023-01-29T07:12:31.434Z,101164.28
2023-01-29T07:18:04.206Z,101152.19
2023-01-29T07:23:31.349Z,101156.44
2023-01-29T07:28:58.455Z,101150.13
2023-01-29T07:34:25.993Z,101148.59
2023-01-29T07:39:53.398Z,101153.31
2023-01-29T07:45:20.494Z,101150.59
2023-01-29T07:50:55.468Z,101137.03
2023-01-29T07:56:22.665Z,101152.81
2023-01-29T08:01:50.798Z,101127.59
2023-01-29T08:07:18.711Z,101126.72
2023-01-29T08:12:46.726Z,101122.09
2023-01-29T08:18:15.143Z,101124.06
2023-01-29T08:23:42.049Z,101123.34
2023-01-29T08:29:14.508Z,101116.78
2023-01-29T08:34:43.752Z,101106.94
2023-01-29T08:40:14.599Z,101099.59
2023-01-29T08:45:46.787Z,101092.75
2023-01-29T08:51:16.349Z,101078.81
2023-01-29T08:56:53.148Z,101066.84
2023-01-29T09:02:27.947Z,101068.72
2023-01-29T09:08:00.382Z,101071.44
2023-01-29T09:13:30.288Z,101065.47
2023-01-29T09:18:58.362Z,101081.47
2023-01-29T09:24:27.100Z,101073.56
2023-01-29T09:29:56.576Z,101069.78
2023-01-29T09:35:24.990Z,101070.47
2023-01-29T09:41:21.972Z,101073.91
2023-01-29T09:46:56.603Z,101063.13
2023-01-29T09:52:41.003Z,101047.16
2023-01-29T09:58:28.909Z,101026.25
2023-01-29T10:04:18.138Z,101013.63
2023-01-29T10:10:14.098Z,101003.72
2023-01-29T10:15:55.636Z,100996.34
2023-01-29T10:21:54.259Z,100991.31
2023-01-29T10:27:30.777Z,100988.84
2023-01-29T10:33:08.333Z,100965.44
2023-01-29T10:38:46.415Z,100969.41
2023-01-29T10:44:51.098Z,100970.81
2023-01-29T10:50:25.924Z,100967.59
2023-01-29T10:56:21.845Z,100967.00
2023-01-29T11:01:49.944Z,100968.28
2023-01-29T11:07:19.842Z,100950.22
2023-01-29T11:12:47.436Z,100942.94
2023-01-29T11:18:15.929Z,100930.00
2023-01-29T11:23:42.625Z,100924.41
2023-01-29T11:29:39.447Z,100926.06
2023-01-29T11:35:12.734Z,100918.69
2023-01-29T11:40:41.126Z,100910.63
2023-01-29T11:46:14.696Z,100890.09
2023-01-29T11:51:42.178Z,100878.16
2023-01-29T11:57:43.734Z,100880.16
2023-01-29T12:03:36.135Z,100858.72
2023-01-29T12:09:19.653Z,100853.56
2023-01-29T12:14:47.266Z,100848.13
2023-01-29T12:20:21.150Z,100836.81
2023-01-29T12:26:13.996Z,100829.19
2023-01-29T12:32:07.735Z,100810.78
2023-01-29T12:37:47.185Z,100798.78
2023-01-29T12:43:17.385Z,100792.47
2023-01-29T12:48:46.685Z,100796.63
2023-01-29T12:54:21.417Z,100786.31
2023-01-29T13:00:15.827Z,100780.25
2023-01-29T13:05:52.427Z,100755.41
2023-01-29T13:11:30.215Z,100760.41
2023-01-29T13:17:11.458Z,100748.28
2023-01-29T13:22:41.547Z,100764.13
2023-01-29T13:28:22.537Z,100758.63
2023-01-29T13:34:21.296Z,100747.00
2023-01-29T13:39:52.581Z,100754.94
2023-01-29T13:45:21.657Z,100752.19
2023-01-29T13:50:51.956Z,100757.88
2023-01-29T13:56:30.698Z,100746.88
2023-01-29T14:02:04.260Z,100748.19
2023-01-29T14:07:45.664Z,100739.91
2023-01-29T14:13:18.329Z,100732.34
2023-01-29T14:18:55.736Z,100725.25
2023-01-29T14:24:29.691Z,100737.16
2023-01-29T14:30:10.568Z,100730.84
2023-01-29T14:35:37.751Z,100728.41
2023-01-29T14:41:29.502Z,100739.00
2023-01-29T14:46:56.777Z,100735.94
2023-01-29T14:52:44.337Z,100724.09
2023-01-29T14:58:24.148Z,100717.31
2023-01-29T15:03:58.806Z,100733.88
2023-01-29T15:09:48.325Z,100725.22
2023-01-29T15:15:25.728Z,100719.31
2023-01-29T15:21:05.994Z,100718.19
2023-01-29T15:26:40.214Z,100727.94
2023-01-29T15:32:35.613Z,100726.16
2023-01-29T15:38:06.810Z,100734.47
2023-01-29T15:43:45.077Z,100733.41
2023-01-29T15:49:21.387Z,100737.88
2023-01-29T15:54:48.725Z,100731.19
2023-01-29T16:00:28.830Z,100723.88
2023-01-29T16:05:57.676Z,100724.91
2023-01-29T16:11:24.704Z,100733.00
2023-01-29T16:16:53.088Z,100726.75
2023-01-29T16:22:20.789Z,100720.47
2023-01-29T16:27:47.854Z,100712.75
2023-01-29T16:33:17.582Z,100713.53
2023-01-29T16:38:49.917Z,100711.00
2023-01-29T16:44:20.815Z,100713.00
2023-01-29T16:49:53.497Z,100708.59
2023-01-29T16:55:22.230Z,100707.06
2023-01-29T17:00:56.940Z,100710.03
2023-01-29T17:06:26.586Z,100687.03
2023-01-29T17:11:57.205Z,100685.75
2023-01-29T17:17:36.058Z,100682.41
2023-01-29T17:23:04.162Z,100680.13
2023-01-29T17:28:31.926Z,100677.88
2023-01-29T17:33:59.255Z,100672.09
2023-01-29T17:39:26.933Z,100668.19
2023-01-29T17:44:54.015Z,100670.25
2023-01-29T17:50:27.526Z,100659.19
2023-01-29T17:55:54.917Z,100659.28
2023-01-29T18:01:22.230Z,100648.50
2023-01-29T18:06:52.027Z,100643.28
2023-01-29T18:12:19.277Z,100636.84
2023-01-29T18:17:47.081Z,100625.69
2023-01-29T18:23:15.878Z,100629.50
2023-01-29T18:28:44.078Z,100621.69
2023-01-29T18:34:11.196Z,100617.63
2023-01-29T18:39:39.208Z,100607.41
2023-01-29T18:45:08.559Z,100600.09
2023-01-29T18:50:36.750Z,100597.97
2023-01-29T18:56:08.006Z,100587.28
2023-01-29T19:01:35.239Z,100585.28
2023-01-29T19:07:02.052Z,100586.97
2023-01-29T19:12:29.725Z,100572.78
2023-01-29T19:17:57.691Z,100574.44
2023-01-29T19:23:25.593Z,100571.66
2023-01-29T19:28:53.602Z,100566.72
2023-01-29T19:34:21.617Z,100564.09
2023-01-29T19:39:49.559Z,100564.31
2023-01-29T19:45:17.447Z,100560.16
2023-01-29T19:51:10.126Z,100545.47
2023-01-29T19:56:37.530Z,100541.41
2023-01-29T20:02:05.831Z,100535.38
2023-01-29T20:07:33.328Z,100515.75
2023-01-29T20:13:01.100Z,100522.28
2023-01-29T20:18:28.460Z,100522.75
2023-01-29T20:23:55.800Z,100505.97
2023-01-29T20:29:23.776Z,100508.59
2023-01-29T20:34:52.460Z,100504.09
2023-01-29T20:40:22.697Z,100496.13
2023-01-29T20:45:50.968Z,100503.75
2023-01-29T20:51:19.301Z,100496.19
2023-01-29T20:56:55.961Z,100492.66
2023-01-29T21:02:53.147Z,100492.09
2023-01-29T21:08:35.006Z,100474.38
2023-01-29T21:14:16.704Z,100455.34
2023-01-29T21:19:48.391Z,100455.06
2023-01-29T21:25:17.762Z,100458.88
2023-01-29T21:30:47.510Z,100453.50
2023-01-29T21:36:25.376Z,100445.81
2023-01-29T21:42:39.091Z,100432.66
2023-01-29T21:48:08.395Z,100428.16
2023-01-29T21:53:36.921Z,100434.75
2023-01-29T21:59:04.746Z,100421.97
2023-01-29T22:04:32.837Z,100404.63
2023-01-29T22:10:00.874Z,100400.56
2023-01-29T22:15:28.857Z,100391.19
2023-01-29T22:20:57.759Z,100394.06
2023-01-29T22:26:24.600Z,100381.00
2023-01-29T22:31:51.644Z,100376.00
2023-01-29T22:37:18.405Z,100357.59
2023-01-29T22:42:45.457Z,100333.13
2023-01-29T22:48:13.122Z,100330.00
2023-01-29T22:53:44.292Z,100302.41
2023-01-29T22:59:11.594Z,100301.09
2023-01-29T23:04:38.819Z,100286.81
2023-01-29T23:10:07.148Z,100275.25
2023-01-29T23:15:34.835Z,100251.59
2023-01-29T23:21:01.938Z,100255.50
2023-01-29T23:26:48.627Z,100238.44
2023-01-29T23:32:21.158Z,100239.84
2023-01-29T23:37:48.684Z,100230.50
2023-01-29T23:43:15.755Z,100218.00
2023-01-29T23:48:42.698Z,100199.88
2023-01-29T23:54:09.798Z,100179.88
2023-01-29T23:59:36.970Z,100168.34
